Saturday, December 3, 2016, 10:34 AM EST

KPTB, Petersburg, Dinwiddie County Airport

Location: Petersburg, VA, United States Lat: 37.183
Local Time: 10:34 AM EST (15:34 GMT) Lon: -77.517
Time Zone: US/Eastern Elev: 193 ft

Show me the last for .
Show Decoded

2016-12-03 10:15 METAR KPTB 031515Z AUTO 28006KT 10SM CLR 07/M02 A3028 RMK AO2 T00721024 =
2016-12-03 09:55 METAR KPTB 031455Z AUTO 28007KT 10SM CLR 07/M03 A3027 RMK AO2 T00661028 =
2016-12-03 09:35 METAR KPTB 031435Z AUTO 29007KT 10SM CLR 06/M03 A3027 RMK AO2 T00581028 =
2016-12-03 09:15 METAR KPTB 031415Z AUTO 28008KT 10SM CLR 05/M03 A3026 RMK AO2 T00521029 =
2016-12-03 08:55 METAR KPTB 031355Z AUTO 28007KT 10SM CLR 05/M02 A3025 RMK AO2 T00471024 =
2016-12-03 08:35 METAR KPTB 031335Z AUTO 29007KT 10SM CLR 04/M02 A3025 RMK AO2 T00361024 =
2016-12-03 08:15 METAR KPTB 031315Z AUTO 28006KT 10SM CLR 02/M03 A3025 RMK AO2 T00231026 =
2016-12-03 07:55 METAR KPTB 031255Z AUTO 27005KT 10SM CLR 01/M03 A3025 RMK AO2 T00131026 =
2016-12-03 07:35 METAR KPTB 031235Z AUTO 27004KT 10SM CLR 00/M03 A3025 RMK AO2 T10051035 =
2016-12-03 07:15 METAR KPTB 031215Z AUTO 27004KT 10SM CLR M01/M04 A3024 RMK AO2 T10111038 =
2016-12-03 06:55 METAR KPTB 031155Z AUTO 27003KT 10SM CLR M01/M04 A3024 RMK AO2 T10141037 11006
                 21031 =
2016-12-03 06:35 METAR KPTB 031135Z AUTO 27003KT 10SM CLR M01/M04 A3023 RMK AO2 T10081036 =
2016-12-03 06:15 METAR KPTB 031115Z AUTO 27005KT 10SM CLR M01/M04 A3023 RMK AO2 T10141037 =
2016-12-03 05:55 METAR KPTB 031055Z AUTO 25005KT 10SM CLR M02/M03 A3023 RMK AO2 T10191035 =
2016-12-03 04:55 METAR KPTB 030955Z AUTO 24005KT 10SM CLR M01/M03 A3022 RMK AO2 T10071028 =
2016-12-03 04:15 METAR KPTB 030915Z AUTO 24005KT 10SM CLR M01/M03 A3021 RMK AO2 T10151029 =
2016-12-03 03:55 METAR KPTB 030855Z AUTO 24004KT 10SM CLR M01/M03 A3020 RMK AO2 T10111027 =
2016-12-03 03:35 METAR KPTB 030835Z AUTO 24005KT 10SM CLR M02/M03 A3020 RMK AO2 T10161026 =
2016-12-03 03:15 METAR KPTB 030815Z AUTO 00000KT 10SM CLR M03/M04 A3019 RMK AO2 T10311039 =
2016-12-03 02:55 METAR KPTB 030755Z AUTO 00000KT 10SM CLR M02/M03 A3019 RMK AO2 T10251032 =
2016-12-03 02:35 METAR KPTB 030735Z AUTO 00000KT 10SM CLR M02/M03 A3019 RMK AO2 T10201028 =
2016-12-03 01:55 METAR KPTB 030655Z AUTO 00000KT 10SM CLR M02/M03 A3018 RMK AO2 T10171029 =
2016-12-03 01:15 METAR KPTB 030615Z AUTO 33003KT 10SM CLR M01/M02 A3018 RMK AO2 T10151025 =
2016-12-03 00:55 METAR KPTB 030555Z AUTO 00000KT 10SM CLR M02/M02 A3018 RMK AO2 T10161023 10067
                 21017 =
2016-12-03 00:35 METAR KPTB 030535Z AUTO 00000KT 10SM CLR M01/M02 A3018 RMK AO2 T10071019 =
2016-12-03 00:15 METAR KPTB 030515Z AUTO 00000KT 10SM CLR M01/M02 A3019 RMK AO2 T10081020 =
2016-12-02 23:55 METAR KPTB 030455Z AUTO 00000KT 10SM CLR M01/M02 A3019 RMK AO2 T10061023
                 401271024 =
2016-12-02 22:35 METAR KPTB 030335Z AUTO 28004KT 10SM CLR 05/M02 A3017 RMK AO2 T00501016 =
2016-12-02 22:15 METAR KPTB 030315Z AUTO 28005KT 10SM CLR 05/M01 A3017 RMK AO2 T00511015 =
2016-12-02 21:55 METAR KPTB 030255Z AUTO 29004KT 10SM CLR 05/M01 A3017 RMK AO2 T00511013 =
2016-12-02 21:35 METAR KPTB 030235Z AUTO 28004KT 10SM CLR 04/M01 A3015 RMK AO2 T00441014 =
2016-12-02 21:15 METAR KPTB 030215Z AUTO 28004KT 10SM CLR 06/M01 A3013 RMK AO2 T00571013 =
2016-12-02 20:55 METAR KPTB 030155Z AUTO 28004KT 10SM CLR 06/M01 A3013 RMK AO2 T00621012 =
2016-12-02 20:35 METAR KPTB 030135Z AUTO 30005KT 10SM CLR 07/M01 A3013 RMK AO2 T00651010 =
2016-12-02 20:15 METAR KPTB 030115Z AUTO 28005KT 10SM CLR 07/M01 A3011 RMK AO2 T00661007 =
2016-12-02 19:55 METAR KPTB 030055Z AUTO 27004KT 10SM CLR 02/00 A3010 RMK AO2 T00221003 =
2016-12-02 19:35 METAR KPTB 030035Z AUTO 00000KT 10SM CLR 03/00 A3009 RMK AO2 T00261001 =
2016-12-02 19:15 METAR KPTB 030015Z AUTO 00000KT 10SM CLR 05/M01 A3009 RMK AO2 T00521006 =
2016-12-02 18:55 METAR KPTB 022355Z AUTO 25005KT 10SM CLR 06/00 A3008 RMK AO2 T00561005 10127
                 20029 =
2016-12-02 18:35 METAR KPTB 022335Z AUTO 24005KT 10SM CLR 06/00 A3008 RMK AO2 T00601004 =
2016-12-02 18:15 METAR KPTB 022315Z AUTO 25005KT 10SM CLR 04/00 A3007 RMK AO2 T00441002 =
2016-12-02 17:55 METAR KPTB 022255Z AUTO 26004KT 10SM CLR 03/01 A3007 RMK AO2 T00310005 =
2016-12-02 17:35 METAR KPTB 022235Z AUTO 23003KT 10SM CLR 03/00 A3006 RMK AO2 T00330000 =
2016-12-02 17:15 METAR KPTB 022215Z AUTO 00000KT 10SM CLR 06/01 A3006 RMK AO2 T00570007 =
2016-12-02 16:55 METAR KPTB 022155Z AUTO 24003KT 10SM CLR 09/00 A3006 RMK AO2 T00861005 =
2016-12-02 16:35 METAR KPTB 022135Z AUTO 25005KT 10SM CLR 11/M01 A3006 RMK AO2 T01051010 =
2016-12-02 16:15 METAR KPTB 022115Z AUTO 27004KT 10SM CLR 11/M01 A3007 RMK AO2 T01121012 =
2016-12-02 15:55 METAR KPTB 022055Z AUTO 26010KT 10SM CLR 12/M01 A3006 RMK AO2 T01171015 =
2016-12-02 15:35 METAR KPTB 022035Z AUTO 25007KT 10SM CLR 12/M02 A3006 RMK AO2 T01201017 =
2016-12-02 15:15 METAR KPTB 022015Z AUTO 28006KT 10SM CLR 12/M02 A3006 RMK AO2 T01221017 =
2016-12-02 14:55 METAR KPTB 021955Z AUTO 28008KT 10SM CLR 12/M02 A3005 RMK AO2 T01231020 =
2016-12-02 14:35 METAR KPTB 021935Z AUTO 27011G15KT 10SM CLR 13/M02 A3005 RMK AO2 T01251018 =
2016-12-02 14:15 METAR KPTB 021915Z AUTO 29011G15KT 10SM CLR 12/M02 A3005 RMK AO2 T01231022 =
2016-12-02 13:55 METAR KPTB 021855Z AUTO 24010G16KT 10SM CLR 13/M02 A3004 RMK AO2 T01271019 =
2016-12-02 13:35 METAR KPTB 021835Z AUTO 29008KT 10SM CLR 12/M02 A3005 RMK AO2 T01231019 =
2016-12-02 13:15 METAR KPTB 021815Z AUTO 23008KT 10SM CLR 12/M02 A3006 RMK AO2 T01231020 =
2016-12-02 12:55 METAR KPTB 021755Z AUTO 26008KT 10SM CLR 12/M02 A3006 RMK AO2 T01231022 10125
                 21024 =
2016-12-02 12:35 METAR KPTB 021735Z AUTO 25010KT 10SM CLR 12/M02 A3007 RMK AO2 T01231021 =
2016-12-02 12:15 METAR KPTB 021715Z AUTO 25008KT 10SM CLR 12/M03 A3007 RMK AO2 T01171026 =
2016-12-02 11:55 METAR KPTB 021655Z AUTO 25009KT 10SM CLR 11/M02 A3008 RMK AO2 T01141023 =
2016-12-02 11:35 METAR KPTB 021635Z AUTO 28008KT 10SM CLR 11/M02 A3009 RMK AO2 T01121019 =
2016-12-02 11:15 METAR KPTB 021615Z AUTO 26010G14KT 10SM CLR 11/M01 A3010 RMK AO2 T01111015 =
2016-12-02 10:55 METAR KPTB 021555Z AUTO 22007KT 10SM CLR 11/M02 A3011 RMK AO2 T01061016 =
2016-12-02 10:35 METAR KPTB 021535Z AUTO 24005KT 10SM CLR 10/M01 A3012 RMK AO2 T01011010 =

Support USWX by starting your Amazon purchase here.